createdAt,value
2018-03-16T00:00:51.456Z,70.60
2018-03-16T00:03:19.044Z,70.60
2018-03-16T00:05:46.664Z,71.30
2018-03-16T00:08:14.361Z,71.70
2018-03-16T00:10:43.455Z,73.10
2018-03-16T00:13:11.821Z,72.90
2018-03-16T00:15:40.621Z,73.00
2018-03-16T00:18:08.220Z,73.00
2018-03-16T00:20:35.806Z,73.10
2018-03-16T00:23:03.567Z,73.10
2018-03-16T00:25:31.146Z,73.20
2018-03-16T00:27:58.736Z,74.00
2018-03-16T00:30:26.690Z,74.30
2018-03-16T00:32:55.385Z,75.30
2018-03-16T00:35:24.266Z,75.40
2018-03-16T00:37:51.909Z,75.40
2018-03-16T00:40:19.518Z,75.90
2018-03-16T00:42:47.131Z,76.40
2018-03-16T00:45:15.597Z,76.50
2018-03-16T00:47:45.141Z,76.40
2018-03-16T00:50:12.736Z,76.80
2018-03-16T00:52:40.678Z,77.40
2018-03-16T00:55:09.050Z,78.70
2018-03-16T00:57:37.658Z,78.60
2018-03-16T01:00:05.333Z,78.50
2018-03-16T01:02:32.960Z,78.60
2018-03-16T01:05:01.640Z,78.70
2018-03-16T01:07:29.604Z,78.90
2018-03-16T01:09:57.209Z,79.10
2018-03-16T01:12:26.167Z,79.10
2018-03-16T01:14:55.222Z,79.40
2018-03-16T01:17:23.565Z,79.50
2018-03-16T01:19:51.924Z,79.50
2018-03-16T01:22:20.666Z,79.40
2018-03-16T01:24:48.273Z,79.40
2018-03-16T01:27:15.902Z,79.60
2018-03-16T01:29:43.863Z,79.70
2018-03-16T01:32:11.547Z,79.60
2018-03-16T01:34:39.123Z,79.70
2018-03-16T01:37:07.538Z,79.90
2018-03-16T01:39:36.120Z,80.00
2018-03-16T01:42:06.636Z,79.80
2018-03-16T01:44:34.208Z,79.80
2018-03-16T01:47:02.632Z,79.30
2018-03-16T01:49:30.263Z,79.20
2018-03-16T01:51:57.870Z,79.50
2018-03-16T01:54:26.239Z,79.40
2018-03-16T01:56:55.337Z,79.50
2018-03-16T01:59:24.176Z,79.40
2018-03-16T02:01:53.742Z,79.20
2018-03-16T02:04:21.372Z,79.00
2018-03-16T02:06:48.985Z,78.90
2018-03-16T02:09:16.697Z,78.70
2018-03-16T02:11:45.093Z,78.80
2018-03-16T02:14:12.675Z,78.70
2018-03-16T02:16:41.083Z,78.70
2018-03-16T02:19:08.763Z,78.70
2018-03-16T02:21:36.378Z,78.80
2018-03-16T02:24:04.929Z,78.90
2018-03-16T02:26:32.584Z,78.80
2018-03-16T02:29:00.252Z,78.80
2018-03-16T02:31:28.597Z,78.60
2018-03-16T02:33:56.207Z,78.60
2018-03-16T02:36:25.189Z,78.80
2018-03-16T02:38:54.072Z,79.00
2018-03-16T02:41:23.020Z,79.10
2018-03-16T02:43:51.394Z,79.20
2018-03-16T02:46:19.782Z,79.30
2018-03-16T02:48:47.404Z,79.10
2018-03-16T02:51:14.988Z,79.10
2018-03-16T02:53:43.339Z,79.10
2018-03-16T02:56:11.873Z,78.80
2018-03-16T02:58:40.292Z,78.90
2018-03-16T03:01:07.920Z,78.90
2018-03-16T03:03:37.053Z,78.50
2018-03-16T03:06:04.643Z,78.60
2018-03-16T03:08:32.996Z,78.70
2018-03-16T03:11:01.381Z,78.50
2018-03-16T03:13:28.981Z,78.50
2018-03-16T03:15:56.590Z,79.30
2018-03-16T03:18:25.295Z,78.50
2018-03-16T03:20:53.648Z,78.40
2018-03-16T03:23:23.701Z,78.60
2018-03-16T03:25:51.473Z,78.70
2018-03-16T03:28:24.943Z,78.80
2018-03-16T03:30:53.638Z,78.80
2018-03-16T03:33:21.267Z,78.50
2018-03-16T03:35:48.897Z,78.60
2018-03-16T03:38:16.836Z,79.00
2018-03-16T03:40:44.433Z,78.90
2018-03-16T03:43:12.821Z,78.80
2018-03-16T03:45:41.609Z,78.80
2018-03-16T03:48:09.229Z,78.20
2018-03-16T03:50:36.821Z,78.40
2018-03-16T03:53:04.761Z,78.60
2018-03-16T03:55:32.365Z,78.60
2018-03-16T03:58:00.718Z,78.50
2018-03-16T04:00:29.548Z,78.60
2018-03-16T04:02:57.155Z,78.40
2018-03-16T04:05:25.767Z,78.60
2018-03-16T04:07:54.974Z,78.50
2018-03-16T04:10:24.079Z,78.50
2018-03-16T04:12:53.258Z,78.50
2018-03-16T04:15:21.204Z,78.70
2018-03-16T04:17:48.797Z,78.60
2018-03-16T04:20:16.385Z,78.60
2018-03-16T04:22:44.781Z,78.80
2018-03-16T04:25:12.383Z,78.80
2018-03-16T04:27:40.119Z,78.80
2018-03-16T04:30:07.850Z,78.60
2018-03-16T04:32:35.477Z,78.90
2018-03-16T04:35:03.109Z,79.10
2018-03-16T04:37:31.419Z,79.00
2018-03-16T04:39:59.797Z,78.80
2018-03-16T04:42:27.384Z,78.80
2018-03-16T04:44:55.576Z,78.70
2018-03-16T04:47:23.882Z,78.60
2018-03-16T04:49:53.390Z,78.70
2018-03-16T04:52:21.065Z,79.00
2018-03-16T04:54:48.724Z,78.70
2018-03-16T04:57:17.164Z,78.70
2018-03-16T04:59:44.921Z,78.80
2018-03-16T05:02:12.541Z,78.80
2018-03-16T05:04:40.174Z,78.60
2018-03-16T05:07:07.905Z,78.60
2018-03-16T05:09:35.533Z,78.80
2018-03-16T05:12:03.150Z,78.60
2018-03-16T05:14:30.845Z,78.50
2018-03-16T05:16:59.433Z,78.60
2018-03-16T05:19:27.031Z,78.50
2018-03-16T05:21:55.209Z,78.50
2018-03-16T05:24:23.499Z,78.30
2018-03-16T05:26:51.159Z,78.10
2018-03-16T05:29:18.810Z,78.00
2018-03-16T05:31:47.160Z,77.90
2018-03-16T05:34:14.749Z,78.00
2018-03-16T05:36:42.350Z,77.70
2018-03-16T05:39:10.032Z,77.80
2018-03-16T05:41:37.672Z,77.60
2018-03-16T05:44:05.365Z,77.60
2018-03-16T05:46:33.782Z,77.40
2018-03-16T05:49:01.746Z,77.30
2018-03-16T05:51:29.375Z,77.00
2018-03-16T05:53:56.946Z,77.00
2018-03-16T05:56:25.652Z,76.90
2018-03-16T05:58:53.962Z,76.90
2018-03-16T06:01:21.627Z,75.80
2018-03-16T06:03:49.342Z,75.20
2018-03-16T06:06:16.940Z,74.80
2018-03-16T06:08:44.568Z,74.40
2018-03-16T06:11:13.300Z,73.40
2018-03-16T06:13:40.916Z,73.40
2018-03-16T06:16:08.568Z,72.80
2018-03-16T06:18:36.192Z,73.30
2018-03-16T06:21:03.810Z,72.00
2018-03-16T06:23:31.471Z,71.70
2018-03-16T06:25:59.090Z,72.20
2018-03-16T06:28:27.445Z,71.70
2018-03-16T06:30:55.812Z,71.50
2018-03-16T06:33:24.172Z,71.50
2018-03-16T06:35:51.764Z,70.90
2018-03-16T06:38:19.477Z,71.00
2018-03-16T06:40:47.184Z,70.70
2018-03-16T06:43:14.854Z,70.10
2018-03-16T06:45:42.486Z,69.60
2018-03-16T06:48:12.599Z,68.90
2018-03-16T06:50:40.191Z,68.80
2018-03-16T06:53:09.545Z,68.30
2018-03-16T06:55:37.299Z,68.20
2018-03-16T06:58:05.969Z,68.00
2018-03-16T07:00:33.655Z,67.50
2018-03-16T07:03:01.418Z,66.20
2018-03-16T07:05:29.997Z,65.40
2018-03-16T07:07:57.716Z,65.20
2018-03-16T07:10:25.309Z,65.50
2018-03-16T07:12:53.959Z,64.40
2018-03-16T07:15:33.980Z,61.40
2018-03-16T07:18:01.854Z,62.00
2018-03-16T07:20:29.519Z,59.90
2018-03-16T07:22:57.152Z,59.00
2018-03-16T07:25:25.257Z,58.20
2018-03-16T07:27:54.993Z,55.70
2018-03-16T07:30:23.024Z,55.70
2018-03-16T07:32:50.695Z,54.60
2018-03-16T07:35:18.330Z,54.90
2018-03-16T07:37:45.955Z,54.10
2018-03-16T07:40:14.366Z,53.70
2018-03-16T07:42:41.968Z,54.20
2018-03-16T07:45:09.630Z,52.80
2018-03-16T07:47:37.327Z,51.00
2018-03-16T07:50:04.948Z,50.70
2018-03-16T07:52:32.574Z,49.70
2018-03-16T07:55:00.229Z,49.40
2018-03-16T07:57:28.936Z,48.70
2018-03-16T07:59:56.573Z,48.90
2018-03-16T08:02:25.164Z,47.70
2018-03-16T08:04:53.440Z,48.20
2018-03-16T08:07:21.160Z,46.50
2018-03-16T08:09:49.596Z,43.90
2018-03-16T08:12:17.255Z,43.80
2018-03-16T08:14:45.717Z,39.80
2018-03-16T08:17:14.103Z,37.80
2018-03-16T08:19:41.742Z,37.80
2018-03-16T08:22:09.441Z,37.10
2018-03-16T08:24:37.067Z,36.20
2018-03-16T08:27:04.741Z,36.10
2018-03-16T08:29:32.344Z,34.60
2018-03-16T08:32:01.006Z,34.40
2018-03-16T08:34:28.606Z,34.70
2018-03-16T08:36:57.087Z,34.90
2018-03-16T08:39:25.265Z,34.80
2018-03-16T08:41:53.596Z,35.80
2018-03-16T08:44:21.175Z,37.00
2018-03-16T08:46:48.895Z,38.00
2018-03-16T08:49:16.497Z,39.00
2018-03-16T08:51:44.931Z,41.20
2018-03-16T08:54:12.618Z,41.10
2018-03-16T08:56:41.294Z,40.60
2018-03-16T08:59:08.948Z,41.10
2018-03-16T09:01:36.597Z,41.70
2018-03-16T09:04:04.216Z,41.60
2018-03-16T09:06:32.643Z,41.10
2018-03-16T09:09:00.356Z,41.10
2018-03-16T09:11:28.014Z,40.60
2018-03-16T09:13:55.670Z,41.20
2018-03-16T09:16:24.362Z,41.30
2018-03-16T09:18:53.387Z,41.80
2018-03-16T09:21:21.206Z,41.90
2018-03-16T09:23:48.848Z,43.10
2018-03-16T09:26:16.556Z,42.30
2018-03-16T09:28:44.154Z,42.40
2018-03-16T09:31:11.836Z,42.90
2018-03-16T09:33:39.513Z,43.80
2018-03-16T09:36:07.964Z,43.00
2018-03-16T09:38:36.315Z,43.20
2018-03-16T09:41:04.946Z,43.90
2018-03-16T09:43:32.568Z,44.00
2018-03-16T09:46:00.252Z,44.50
2018-03-16T09:48:27.943Z,44.00
2018-03-16T09:50:56.384Z,44.10
2018-03-16T09:53:31.023Z,42.90
2018-03-16T09:55:58.661Z,43.00
2018-03-16T09:58:27.110Z,42.70
2018-03-16T10:00:56.111Z,42.70
2018-03-16T10:03:24.027Z,43.50
2018-03-16T10:05:52.981Z,42.90
2018-03-16T10:08:20.794Z,42.90
2018-03-16T10:10:48.408Z,44.00
2018-03-16T10:13:16.095Z,44.60
2018-03-16T10:15:43.698Z,44.20
2018-03-16T10:18:11.454Z,44.40
2018-03-16T10:20:39.055Z,43.90
2018-03-16T10:23:06.671Z,43.80
2018-03-16T10:25:34.337Z,44.00
2018-03-16T10:28:01.971Z,43.80
2018-03-16T10:30:29.734Z,44.10
2018-03-16T10:32:57.337Z,43.60
2018-03-16T10:35:25.270Z,43.60
2018-03-16T10:37:53.635Z,44.10
2018-03-16T10:40:22.226Z,44.70
2018-03-16T10:42:49.903Z,45.90
2018-03-16T10:45:18.308Z,45.60
2018-03-16T10:47:45.944Z,45.60
2018-03-16T10:50:13.581Z,46.40
2018-03-16T10:52:41.195Z,46.70
2018-03-16T10:55:09.648Z,47.30
2018-03-16T10:57:38.047Z,47.40
2018-03-16T11:00:05.751Z,47.40
2018-03-16T11:02:38.992Z,46.30
2018-03-16T11:08:12.306Z,47.20
2018-03-16T11:10:39.945Z,48.10
2018-03-16T11:13:07.560Z,49.50
2018-03-16T11:15:35.162Z,50.50
2018-03-16T11:18:03.543Z,50.00
2018-03-16T11:20:31.925Z,49.90
2018-03-16T11:22:59.552Z,50.00
2018-03-16T11:25:27.199Z,50.20
2018-03-16T11:27:55.601Z,50.40
2018-03-16T11:30:23.933Z,51.00
2018-03-16T11:32:51.641Z,49.60
2018-03-16T11:35:19.273Z,49.00
2018-03-16T11:37:46.926Z,49.50
2018-03-16T11:40:14.556Z,49.40
2018-03-16T11:42:42.995Z,52.40
2018-03-16T11:45:10.602Z,52.40
2018-03-16T11:47:38.298Z,54.10
2018-03-16T11:50:06.671Z,55.70
2018-03-16T11:52:35.089Z,54.80
2018-03-16T11:55:02.727Z,54.80
2018-03-16T11:57:30.388Z,55.10
2018-03-16T11:59:58.018Z,54.50
2018-03-16T12:02:25.704Z,54.40
2018-03-16T12:04:54.899Z,52.50
2018-03-16T12:07:23.084Z,52.40
2018-03-16T12:09:50.695Z,52.80
2018-03-16T12:12:20.431Z,52.30
2018-03-16T12:14:48.053Z,52.10
2018-03-16T12:17:16.641Z,51.10
2018-03-16T12:19:44.247Z,50.40
2018-03-16T12:22:12.633Z,50.20
2018-03-16T12:24:41.359Z,50.10
2018-03-16T12:27:09.941Z,49.50
2018-03-16T12:29:37.607Z,49.40
2018-03-16T12:32:05.203Z,49.30
2018-03-16T12:34:32.852Z,47.30
2018-03-16T12:37:00.493Z,48.00
2018-03-16T12:39:28.110Z,48.80
2018-03-16T12:41:56.633Z,49.50
2018-03-16T12:44:25.359Z,50.00
2018-03-16T12:46:53.597Z,49.10
2018-03-16T12:49:21.305Z,48.40
2018-03-16T12:51:48.912Z,48.20
2018-03-16T12:54:16.536Z,48.00
2018-03-16T12:56:44.197Z,48.10
2018-03-16T12:59:12.151Z,49.00
2018-03-16T13:01:39.739Z,49.60
2018-03-16T13:04:07.368Z,49.90
2018-03-16T13:06:35.279Z,49.30
2018-03-16T13:09:04.395Z,48.50
2018-03-16T13:11:32.040Z,48.50
2018-03-16T13:13:59.678Z,48.70
2018-03-16T13:16:27.289Z,49.20
2018-03-16T13:18:55.721Z,48.20
2018-03-16T13:21:23.374Z,48.30
2018-03-16T13:23:51.045Z,48.40
2018-03-16T13:26:20.189Z,48.80
2018-03-16T13:28:47.832Z,48.80
2018-03-16T13:31:15.442Z,48.30
2018-03-16T13:33:43.825Z,47.80
2018-03-16T13:36:11.446Z,47.80
2018-03-16T13:38:39.069Z,47.90
2018-03-16T13:41:06.675Z,48.30
2018-03-16T13:43:35.032Z,48.80
2018-03-16T13:46:03.320Z,48.20
2018-03-16T13:48:31.089Z,49.50
2018-03-16T13:50:59.499Z,50.50
2018-03-16T13:53:29.114Z,50.30
2018-03-16T13:55:56.880Z,50.90
2018-03-16T13:58:25.511Z,50.50
2018-03-16T14:00:53.092Z,48.40
2018-03-16T14:03:21.522Z,49.10
2018-03-16T14:05:49.300Z,49.00
2018-03-16T14:08:18.658Z,48.90
2018-03-16T14:10:46.382Z,48.90
2018-03-16T14:13:14.033Z,48.80
2018-03-16T14:15:41.698Z,48.80
2018-03-16T14:18:10.246Z,48.00
2018-03-16T14:20:38.001Z,47.60
2018-03-16T14:23:05.622Z,47.70
2018-03-16T14:25:35.070Z,47.60
2018-03-16T14:28:03.356Z,47.50
2018-03-16T14:30:31.030Z,47.70
2018-03-16T14:32:58.689Z,47.90
2018-03-16T14:35:27.145Z,48.00
2018-03-16T14:37:55.519Z,47.60
2018-03-16T14:40:23.166Z,47.60
2018-03-16T14:42:50.801Z,47.40
2018-03-16T14:45:18.478Z,46.90
2018-03-16T14:47:46.110Z,46.50
2018-03-16T14:50:14.778Z,45.20
2018-03-16T14:52:43.324Z,44.50
2018-03-16T14:55:10.978Z,44.60
2018-03-16T14:57:39.984Z,44.40
2018-03-16T15:00:07.700Z,44.40
2018-03-16T15:02:36.375Z,43.90
2018-03-16T15:05:05.017Z,44.20
2018-03-16T15:07:34.161Z,43.80
2018-03-16T15:10:03.190Z,48.20
2018-03-16T15:12:30.906Z,48.20
2018-03-16T15:14:59.302Z,51.80
2018-03-16T15:17:26.907Z,51.70
2018-03-16T15:19:55.265Z,54.00
2018-03-16T15:22:23.588Z,55.20
2018-03-16T15:24:51.239Z,55.10
2018-03-16T15:27:18.813Z,55.80
2018-03-16T15:29:47.224Z,56.30
2018-03-16T15:32:14.773Z,56.50
2018-03-16T15:34:42.386Z,56.80
2018-03-16T15:37:09.966Z,57.40
2018-03-16T15:39:37.548Z,57.60
2018-03-16T15:42:05.864Z,61.10
2018-03-16T15:44:35.299Z,61.20
2018-03-16T15:47:03.221Z,61.90
2018-03-16T15:49:31.594Z,61.70
2018-03-16T15:51:59.154Z,61.80
2018-03-16T15:54:26.756Z,62.30
2018-03-16T15:56:54.332Z,63.50
2018-03-16T15:59:22.000Z,63.20
2018-03-16T16:01:49.543Z,63.30
2018-03-16T16:04:17.128Z,63.30
2018-03-16T16:06:44.908Z,62.90
2018-03-16T16:09:12.513Z,62.60
2018-03-16T16:11:40.112Z,62.80
2018-03-16T16:14:07.829Z,61.50
2018-03-16T16:16:36.175Z,61.00
2018-03-16T16:19:05.396Z,60.50
2018-03-16T16:21:34.193Z,59.90
2018-03-16T16:24:03.193Z,60.50
2018-03-16T16:26:30.732Z,59.80
2018-03-16T16:28:58.389Z,59.70
2018-03-16T16:31:26.709Z,59.80
2018-03-16T16:33:54.354Z,59.80
2018-03-16T16:36:21.877Z,59.50
2018-03-16T16:38:49.533Z,59.60
2018-03-16T16:41:17.077Z,59.70
2018-03-16T16:43:44.680Z,59.60
2018-03-16T16:46:13.054Z,59.50
2018-03-16T16:48:40.653Z,59.50
2018-03-16T16:51:08.217Z,59.70
2018-03-16T16:53:37.599Z,59.50
2018-03-16T16:56:05.345Z,59.50
2018-03-16T16:58:34.216Z,59.60
2018-03-16T17:01:03.373Z,59.40
2018-03-16T17:03:31.770Z,59.30
2018-03-16T17:05:59.464Z,59.40
2018-03-16T17:08:27.054Z,59.80
2018-03-16T17:10:54.682Z,62.30
2018-03-16T17:13:22.333Z,64.10
2018-03-16T17:15:50.019Z,64.40
2018-03-16T17:18:17.578Z,65.70
2018-03-16T17:20:45.181Z,66.10
2018-03-16T17:23:12.730Z,66.00
2018-03-16T17:25:40.315Z,66.00
2018-03-16T17:28:08.683Z,66.00
2018-03-16T17:30:36.419Z,65.90
2018-03-16T17:33:04.804Z,66.10
2018-03-16T17:35:32.425Z,66.10
2018-03-16T17:38:00.636Z,65.60
2018-03-16T17:40:28.287Z,66.50
2018-03-16T17:42:55.892Z,66.10
2018-03-16T17:45:23.560Z,66.10
2018-03-16T17:47:51.254Z,66.30
2018-03-16T17:50:18.968Z,66.60
2018-03-16T17:52:46.586Z,66.40
2018-03-16T17:55:15.079Z,66.50
2018-03-16T17:57:42.815Z,66.50
2018-03-16T18:00:10.571Z,66.90
2018-03-16T18:02:38.433Z,66.90
2018-03-16T18:05:06.306Z,67.00
2018-03-16T18:07:34.958Z,67.10
2018-03-16T18:10:04.266Z,67.40
2018-03-16T18:12:32.170Z,67.20
2018-03-16T18:15:00.837Z,67.10
2018-03-16T18:17:28.810Z,68.30
2018-03-16T18:19:56.682Z,68.20
2018-03-16T18:22:24.601Z,67.70
2018-03-16T18:24:52.471Z,67.50
2018-03-16T18:27:20.357Z,66.30
2018-03-16T18:29:48.221Z,66.80
2018-03-16T18:32:16.889Z,65.70
2018-03-16T18:34:45.538Z,65.50
2018-03-16T18:37:13.533Z,65.60
2018-03-16T18:39:41.449Z,65.80
2018-03-16T18:42:10.237Z,66.60
2018-03-16T18:44:38.091Z,66.60
2018-03-16T18:47:06.413Z,66.90
2018-03-16T18:49:35.815Z,67.00
2018-03-16T18:52:04.724Z,67.10
2018-03-16T18:54:33.352Z,67.00
2018-03-16T18:57:01.672Z,67.20
2018-03-16T18:59:29.571Z,67.30
2018-03-16T19:01:57.553Z,67.60
2018-03-16T19:04:25.390Z,67.80
2018-03-16T19:06:53.031Z,67.60
2018-03-16T19:09:20.702Z,67.90
2018-03-16T19:11:48.382Z,67.70
2018-03-16T19:14:16.112Z,67.80
2018-03-16T19:16:44.013Z,67.80
2018-03-16T19:19:11.929Z,67.90
2018-03-16T19:21:39.853Z,67.90
2018-03-16T19:24:08.561Z,68.10
2018-03-16T19:26:36.460Z,67.90
2018-03-16T19:29:05.023Z,68.30
2018-03-16T19:31:33.121Z,68.10
2018-03-16T19:34:00.859Z,68.60
2018-03-16T19:36:28.610Z,68.70
2018-03-16T19:38:56.502Z,68.90
2018-03-16T19:41:25.150Z,69.00
2018-03-16T19:43:53.050Z,68.90
2018-03-16T19:46:20.985Z,68.90
2018-03-16T19:48:48.925Z,68.60
2018-03-16T19:51:16.788Z,68.70
2018-03-16T19:53:44.515Z,68.40
2018-03-16T19:56:12.117Z,68.70
2018-03-16T19:58:39.915Z,68.90
2018-03-16T20:01:07.555Z,68.70
2018-03-16T20:03:35.569Z,68.80
2018-03-16T20:06:03.886Z,69.20
2018-03-16T20:08:31.457Z,68.90
2018-03-16T20:10:59.062Z,69.10
2018-03-16T20:13:26.619Z,69.20
2018-03-16T20:15:54.214Z,69.10
2018-03-16T20:18:21.806Z,69.40
2018-03-16T20:20:49.465Z,69.80
2018-03-16T20:23:17.051Z,69.80
2018-03-16T20:25:44.645Z,69.60
2018-03-16T20:28:12.225Z,69.80
2018-03-16T20:30:39.837Z,69.70
2018-03-16T20:33:07.394Z,69.90
2018-03-16T20:35:36.597Z,69.80
2018-03-16T20:38:05.022Z,69.70
2018-03-16T20:40:33.246Z,69.90
2018-03-16T20:43:00.909Z,70.10
2018-03-16T20:45:28.494Z,70.20
2018-03-16T20:47:56.820Z,70.90
2018-03-16T20:50:24.398Z,70.50
2018-03-16T20:52:52.751Z,70.70
2018-03-16T20:55:21.128Z,70.60
2018-03-16T20:57:48.744Z,70.50
2018-03-16T21:00:16.766Z,70.40
2018-03-16T21:02:44.351Z,70.30
2018-03-16T21:05:12.717Z,70.50
2018-03-16T21:07:41.054Z,70.80
2018-03-16T21:10:09.708Z,71.40
2018-03-16T21:12:38.384Z,70.70
2018-03-16T21:15:06.371Z,70.50
2018-03-16T21:17:34.777Z,70.20
2018-03-16T21:20:02.419Z,70.20
2018-03-16T21:22:30.819Z,70.30
2018-03-16T21:24:58.396Z,70.30
2018-03-16T21:27:26.732Z,70.80
2018-03-16T21:29:54.335Z,70.40
2018-03-16T21:32:21.901Z,70.20
2018-03-16T21:34:49.496Z,70.10
2018-03-16T21:37:17.089Z,70.00
2018-03-16T21:39:44.717Z,69.70
2018-03-16T21:42:12.284Z,69.80
2018-03-16T21:44:40.390Z,69.90
2018-03-16T21:47:08.741Z,70.00
2018-03-16T21:49:36.378Z,70.00
2018-03-16T21:52:04.559Z,70.30
2018-03-16T21:54:32.144Z,70.40
2018-03-16T21:56:59.728Z,70.50
2018-03-16T21:59:27.302Z,70.50
2018-03-16T22:01:54.852Z,70.60
2018-03-16T22:04:22.451Z,70.80
2018-03-16T22:06:50.826Z,70.60
2018-03-16T22:09:18.420Z,70.60
2018-03-16T22:11:46.033Z,70.60
2018-03-16T22:14:15.166Z,70.50
2018-03-16T22:16:42.739Z,70.40
2018-03-16T22:19:10.494Z,70.50
2018-03-16T22:21:38.043Z,70.40
2018-03-16T22:24:05.666Z,70.50
2018-03-16T22:26:37.852Z,70.60
2018-03-16T22:29:06.255Z,70.20
2018-03-16T22:31:35.490Z,70.50
2018-03-16T22:34:03.941Z,70.50
2018-03-16T22:36:31.884Z,70.20
2018-03-16T22:38:59.450Z,70.30
2018-03-16T22:41:27.368Z,70.30
2018-03-16T22:43:55.048Z,70.40
2018-03-16T22:46:22.623Z,70.30
2018-03-16T22:48:50.167Z,70.50
2018-03-16T22:51:17.831Z,70.30
2018-03-16T22:53:45.367Z,70.30
2018-03-16T22:56:12.920Z,70.50
2018-03-16T22:58:40.486Z,70.20
2018-03-16T23:01:08.069Z,70.30
2018-03-16T23:03:35.629Z,70.40
2018-03-16T23:06:03.922Z,70.50
2018-03-16T23:08:31.544Z,70.70
2018-03-16T23:11:00.148Z,70.80
2018-03-16T23:13:27.740Z,70.70
2018-03-16T23:15:55.327Z,70.80
2018-03-16T23:18:23.688Z,70.70
2018-03-16T23:20:51.268Z,70.80
2018-03-16T23:23:18.907Z,70.80
2018-03-16T23:25:46.464Z,71.10
2018-03-16T23:28:14.038Z,71.00
2018-03-16T23:30:42.431Z,70.90
2018-03-16T23:33:10.003Z,70.80
2018-03-16T23:35:37.549Z,70.70
2018-03-16T23:38:05.295Z,70.60
2018-03-16T23:40:33.294Z,71.10
2018-03-16T23:43:00.876Z,70.90
2018-03-16T23:45:28.415Z,71.10
2018-03-16T23:47:56.830Z,71.50
2018-03-16T23:50:24.401Z,71.40
2018-03-16T23:52:52.071Z,71.50
2018-03-16T23:55:19.624Z,71.40
2018-03-16T23:57:47.216Z,71.30
